sensor_id;sensor_type;location;lat;lon;timestamp;temperature;humidity
67722;SHT31;58309;45.292;11.820;2022-12-07T00:01:14;5.22;99.99
67722;SHT31;58309;45.292;11.820;2022-12-07T00:03:42;5.16;99.99
67722;SHT31;58309;45.292;11.820;2022-12-07T00:06:09;5.09;99.99
67722;SHT31;58309;45.292;11.820;2022-12-07T00:08:35;4.99;99.99
67722;SHT31;58309;45.292;11.820;2022-12-07T00:11:15;4.82;99.99
67722;SHT31;58309;45.292;11.820;2022-12-07T00:13:41;4.75;99.99
67722;SHT31;58309;45.292;11.820;2022-12-07T00:16:18;4.69;99.99
67722;SHT31;58309;45.292;11.820;2022-12-07T00:18:45;4.62;99.99
67722;SHT31;58309;45.292;11.820;2022-12-07T00:21:15;4.66;99.99
67722;SHT31;58309;45.292;11.820;2022-12-07T00:23:42;4.66;99.99
67722;SHT31;58309;45.292;11.820;2022-12-07T00:26:16;4.66;99.99
67722;SHT31;58309;45.292;11.820;2022-12-07T00:28:48;4.71;99.99
67722;SHT31;58309;45.292;11.820;2022-12-07T00:31:16;4.75;99.99
67722;SHT31;58309;45.292;11.820;2022-12-07T00:33:42;4.80;99.99
67722;SHT31;58309;45.292;11.820;2022-12-07T00:36:10;4.86;99.99
67722;SHT31;58309;45.292;11.820;2022-12-07T00:38:37;4.86;99.99
67722;SHT31;58309;45.292;11.820;2022-12-07T00:41:05;4.90;99.99
67722;SHT31;58309;45.292;11.820;2022-12-07T00:43:32;4.93;99.99
67722;SHT31;58309;45.292;11.820;2022-12-07T00:45:57;4.95;99.99
67722;SHT31;58309;45.292;11.820;2022-12-07T00:48:23;4.93;99.99
67722;SHT31;58309;45.292;11.820;2022-12-07T00:50:49;4.96;99.99
67722;SHT31;58309;45.292;11.820;2022-12-07T00:53:16;4.93;99.99
67722;SHT31;58309;45.292;11.820;2022-12-07T00:55:44;4.96;99.99
67722;SHT31;58309;45.292;11.820;2022-12-07T00:58:09;4.95;99.99
67722;SHT31;58309;45.292;11.820;2022-12-07T01:00:37;4.96;99.99
67722;SHT31;58309;45.292;11.820;2022-12-07T01:03:04;5.03;99.99
67722;SHT31;58309;45.292;11.820;2022-12-07T01:05:30;5.03;99.99
67722;SHT31;58309;45.292;11.820;2022-12-07T01:07:55;4.89;99.99
67722;SHT31;58309;45.292;11.820;2022-12-07T01:10:20;4.85;99.99
67722;SHT31;58309;45.292;11.820;2022-12-07T01:12:46;4.85;99.99
67722;SHT31;58309;45.292;11.820;2022-12-07T01:15:11;4.78;99.99
67722;SHT31;58309;45.292;11.820;2022-12-07T01:17:37;4.73;99.99
67722;SHT31;58309;45.292;11.820;2022-12-07T01:20:03;4.64;99.99
67722;SHT31;58309;45.292;11.820;2022-12-07T01:22:28;4.61;99.99
67722;SHT31;58309;45.292;11.820;2022-12-07T01:24:54;4.65;99.99
67722;SHT31;58309;45.292;11.820;2022-12-07T01:27:19;4.62;99.99
67722;SHT31;58309;45.292;11.820;2022-12-07T01:29:45;4.58;99.99
67722;SHT31;58309;45.292;11.820;2022-12-07T01:32:10;4.56;99.99
67722;SHT31;58309;45.292;11.820;2022-12-07T01:34:36;4.56;99.99
67722;SHT31;58309;45.292;11.820;2022-12-07T01:37:02;4.54;99.99
67722;SHT31;58309;45.292;11.820;2022-12-07T01:39:27;4.55;99.99
67722;SHT31;58309;45.292;11.820;2022-12-07T01:41:53;4.59;99.99
67722;SHT31;58309;45.292;11.820;2022-12-07T01:46:51;4.54;99.99
67722;SHT31;58309;45.292;11.820;2022-12-07T01:51:53;4.58;99.99
67722;SHT31;58309;45.292;11.820;2022-12-07T01:54:20;4.56;99.99
67722;SHT31;58309;45.292;11.820;2022-12-07T01:56:53;4.59;99.99
67722;SHT31;58309;45.292;11.820;2022-12-07T01:59:21;4.62;99.99
67722;SHT31;58309;45.292;11.820;2022-12-07T02:01:48;4.64;99.99
67722;SHT31;58309;45.292;11.820;2022-12-07T02:04:14;4.64;99.99
67722;SHT31;58309;45.292;11.820;2022-12-07T02:06:41;4.65;99.99
67722;SHT31;58309;45.292;11.820;2022-12-07T02:09:07;4.65;99.99
67722;SHT31;58309;45.292;11.820;2022-12-07T02:11:33;4.68;99.99
67722;SHT31;58309;45.292;11.820;2022-12-07T02:13:58;4.62;99.99
67722;SHT31;58309;45.292;11.820;2022-12-07T02:16:42;4.51;99.99
67722;SHT31;58309;45.292;11.820;2022-12-07T02:27:47;4.34;99.99
67722;SHT31;58309;45.292;11.820;2022-12-07T02:30:20;4.22;99.99
67722;SHT31;58309;45.292;11.820;2022-12-07T02:38:21;4.06;99.99
67722;SHT31;58309;45.292;11.820;2022-12-07T02:41:02;3.98;99.99
67722;SHT31;58309;45.292;11.820;2022-12-07T02:43:39;3.94;99.99
67722;SHT31;58309;45.292;11.820;2022-12-07T02:46:10;3.91;99.99
67722;SHT31;58309;45.292;11.820;2022-12-07T02:48:38;3.90;99.99
67722;SHT31;58309;45.292;11.820;2022-12-07T02:51:04;3.89;99.99
67722;SHT31;58309;45.292;11.820;2022-12-07T02:53:35;3.87;99.99
67722;SHT31;58309;45.292;11.820;2022-12-07T03:06:55;4.03;99.99
67722;SHT31;58309;45.292;11.820;2022-12-07T03:09:36;4.07;99.99
67722;SHT31;58309;45.292;11.820;2022-12-07T03:12:20;4.06;99.99
67722;SHT31;58309;45.292;11.820;2022-12-07T03:17:45;4.18;99.99
67722;SHT31;58309;45.292;11.820;2022-12-07T03:20:16;4.22;99.99
67722;SHT31;58309;45.292;11.820;2022-12-07T03:22:45;4.24;99.99
67722;SHT31;58309;45.292;11.820;2022-12-07T03:25:14;4.33;99.99
67722;SHT31;58309;45.292;11.820;2022-12-07T03:30:19;4.41;99.99
67722;SHT31;58309;45.292;11.820;2022-12-07T03:35:26;4.54;99.99
67722;SHT31;58309;45.292;11.820;2022-12-07T03:37:56;4.51;99.99
67722;SHT31;58309;45.292;11.820;2022-12-07T03:42:53;4.48;99.99
67722;SHT31;58309;45.292;11.820;2022-12-07T03:45:24;4.47;99.99
67722;SHT31;58309;45.292;11.820;2022-12-07T03:48:03;4.45;99.99
67722;SHT31;58309;45.292;11.820;2022-12-07T03:50:47;4.51;99.99
67722;SHT31;58309;45.292;11.820;2022-12-07T03:53:18;4.47;99.99
67722;SHT31;58309;45.292;11.820;2022-12-07T03:55:46;4.47;99.99
67722;SHT31;58309;45.292;11.820;2022-12-07T03:58:19;4.45;99.99
67722;SHT31;58309;45.292;11.820;2022-12-07T04:00:47;4.45;99.99
67722;SHT31;58309;45.292;11.820;2022-12-07T04:03:13;4.48;99.99
67722;SHT31;58309;45.292;11.820;2022-12-07T04:05:39;4.47;99.99
67722;SHT31;58309;45.292;11.820;2022-12-07T04:08:05;4.42;99.99
67722;SHT31;58309;45.292;11.820;2022-12-07T04:10:30;4.35;99.99
67722;SHT31;58309;45.292;11.820;2022-12-07T04:12:56;4.33;99.99
67722;SHT31;58309;45.292;11.820;2022-12-07T04:15:21;4.30;99.99
67722;SHT31;58309;45.292;11.820;2022-12-07T04:17:47;4.25;99.99
67722;SHT31;58309;45.292;11.820;2022-12-07T04:20:13;4.24;99.99
67722;SHT31;58309;45.292;11.820;2022-12-07T04:22:38;4.24;99.99
67722;SHT31;58309;45.292;11.820;2022-12-07T04:25:04;4.24;99.99
67722;SHT31;58309;45.292;11.820;2022-12-07T04:27:30;4.21;99.99
67722;SHT31;58309;45.292;11.820;2022-12-07T04:29:55;4.21;99.99
67722;SHT31;58309;45.292;11.820;2022-12-07T04:32:21;4.20;99.99
67722;SHT31;58309;45.292;11.820;2022-12-07T04:34:47;4.21;99.99
67722;SHT31;58309;45.292;11.820;2022-12-07T04:37:12;4.20;99.99
67722;SHT31;58309;45.292;11.820;2022-12-07T04:39:38;4.21;99.99
67722;SHT31;58309;45.292;11.820;2022-12-07T04:42:03;4.06;99.99
67722;SHT31;58309;45.292;11.820;2022-12-07T04:44:30;3.91;99.99
67722;SHT31;58309;45.292;11.820;2022-12-07T04:46:55;3.93;99.99
67722;SHT31;58309;45.292;11.820;2022-12-07T04:49:23;3.94;99.99
67722;SHT31;58309;45.292;11.820;2022-12-07T04:51:49;3.96;99.99
67722;SHT31;58309;45.292;11.820;2022-12-07T04:54:15;3.90;99.99
67722;SHT31;58309;45.292;11.820;2022-12-07T04:56:41;3.94;99.99
67722;SHT31;58309;45.292;11.820;2022-12-07T04:59:07;3.93;99.99
67722;SHT31;58309;45.292;11.820;2022-12-07T05:01:33;3.94;99.99
67722;SHT31;58309;45.292;11.820;2022-12-07T05:03:59;3.94;99.99
67722;SHT31;58309;45.292;11.820;2022-12-07T05:06:25;3.93;99.99
67722;SHT31;58309;45.292;11.820;2022-12-07T05:08:51;3.89;99.99
67722;SHT31;58309;45.292;11.820;2022-12-07T05:11:17;3.93;99.99
67722;SHT31;58309;45.292;11.820;2022-12-07T05:14:03;3.91;99.99
67722;SHT31;58309;45.292;11.820;2022-12-07T05:16:29;3.93;99.99
67722;SHT31;58309;45.292;11.820;2022-12-07T05:18:54;3.96;99.99
67722;SHT31;58309;45.292;11.820;2022-12-07T05:21:20;3.93;99.99
67722;SHT31;58309;45.292;11.820;2022-12-07T05:23:45;3.80;99.99
67722;SHT31;58309;45.292;11.820;2022-12-07T05:26:11;3.69;99.99
67722;SHT31;58309;45.292;11.820;2022-12-07T05:28:36;3.53;99.99
67722;SHT31;58309;45.292;11.820;2022-12-07T05:31:02;3.43;99.99
67722;SHT31;58309;45.292;11.820;2022-12-07T05:33:28;3.34;99.99
67722;SHT31;58309;45.292;11.820;2022-12-07T05:35:53;3.21;99.99
67722;SHT31;58309;45.292;11.820;2022-12-07T05:38:28;3.05;99.99
67722;SHT31;58309;45.292;11.820;2022-12-07T05:40:53;2.95;99.99
67722;SHT31;58309;45.292;11.820;2022-12-07T05:43:19;2.81;99.99
67722;SHT31;58309;45.292;11.820;2022-12-07T05:45:44;2.68;99.99
67722;SHT31;58309;45.292;11.820;2022-12-07T05:48:10;2.58;99.99
67722;SHT31;58309;45.292;11.820;2022-12-07T05:50:35;2.47;99.99
67722;SHT31;58309;45.292;11.820;2022-12-07T05:53:01;2.36;99.99
67722;SHT31;58309;45.292;11.820;2022-12-07T05:55:26;2.28;99.99
67722;SHT31;58309;45.292;11.820;2022-12-07T05:57:51;2.23;99.99
67722;SHT31;58309;45.292;11.820;2022-12-07T06:00:35;2.21;99.99
67722;SHT31;58309;45.292;11.820;2022-12-07T06:03:01;2.18;99.99
67722;SHT31;58309;45.292;11.820;2022-12-07T06:05:27;2.21;99.99
67722;SHT31;58309;45.292;11.820;2022-12-07T06:07:52;2.30;99.99
67722;SHT31;58309;45.292;11.820;2022-12-07T06:10:18;2.18;99.99
67722;SHT31;58309;45.292;11.820;2022-12-07T06:12:43;2.11;99.99
67722;SHT31;58309;45.292;11.820;2022-12-07T06:15:11;2.23;99.99
67722;SHT31;58309;45.292;11.820;2022-12-07T06:17:38;2.36;99.99
67722;SHT31;58309;45.292;11.820;2022-12-07T06:20:04;2.36;99.99
67722;SHT31;58309;45.292;11.820;2022-12-07T06:22:30;2.30;99.99
67722;SHT31;58309;45.292;11.820;2022-12-07T06:24:55;2.40;99.99
67722;SHT31;58309;45.292;11.820;2022-12-07T06:27:21;2.47;99.99
67722;SHT31;58309;45.292;11.820;2022-12-07T06:29:46;2.54;99.99
67722;SHT31;58309;45.292;11.820;2022-12-07T06:32:12;2.43;99.99
67722;SHT31;58309;45.292;11.820;2022-12-07T06:34:37;2.26;99.99
67722;SHT31;58309;45.292;11.820;2022-12-07T06:37:03;2.30;99.99
67722;SHT31;58309;45.292;11.820;2022-12-07T06:39:29;2.44;99.99
67722;SHT31;58309;45.292;11.820;2022-12-07T06:41:55;2.52;99.99
67722;SHT31;58309;45.292;11.820;2022-12-07T06:44:21;2.44;99.99
67722;SHT31;58309;45.292;11.820;2022-12-07T06:46:47;2.33;99.99
67722;SHT31;58309;45.292;11.820;2022-12-07T06:49:13;2.16;99.99
67722;SHT31;58309;45.292;11.820;2022-12-07T06:51:39;2.25;99.99
67722;SHT31;58309;45.292;11.820;2022-12-07T06:54:09;2.39;99.99
67722;SHT31;58309;45.292;11.820;2022-12-07T06:56:35;2.54;99.99
67722;SHT31;58309;45.292;11.820;2022-12-07T06:59:00;2.72;99.99
67722;SHT31;58309;45.292;11.820;2022-12-07T07:01:26;2.84;99.99
67722;SHT31;58309;45.292;11.820;2022-12-07T07:03:52;2.85;99.99
67722;SHT31;58309;45.292;11.820;2022-12-07T07:06:17;2.81;99.99
67722;SHT31;58309;45.292;11.820;2022-12-07T07:08:43;2.74;99.99
67722;SHT31;58309;45.292;11.820;2022-12-07T07:11:10;2.76;99.99
67722;SHT31;58309;45.292;11.820;2022-12-07T07:13:36;2.68;99.99
67722;SHT31;58309;45.292;11.820;2022-12-07T07:16:02;2.73;99.99
67722;SHT31;58309;45.292;11.820;2022-12-07T07:18:27;2.73;99.99
67722;SHT31;58309;45.292;11.820;2022-12-07T07:20:54;2.76;99.99
67722;SHT31;58309;45.292;11.820;2022-12-07T07:23:21;3.04;99.99
67722;SHT31;58309;45.292;11.820;2022-12-07T07:25:47;3.28;99.99
67722;SHT31;58309;45.292;11.820;2022-12-07T07:28:12;3.58;99.99
67722;SHT31;58309;45.292;11.820;2022-12-07T07:30:38;3.77;99.99
67722;SHT31;58309;45.292;11.820;2022-12-07T07:33:04;3.90;99.99
67722;SHT31;58309;45.292;11.820;2022-12-07T07:35:32;4.04;99.99
67722;SHT31;58309;45.292;11.820;2022-12-07T07:37:58;4.11;99.99
67722;SHT31;58309;45.292;11.820;2022-12-07T07:40:24;4.27;99.99
67722;SHT31;58309;45.292;11.820;2022-12-07T07:42:51;4.34;99.99
67722;SHT31;58309;45.292;11.820;2022-12-07T07:45:18;4.42;99.99
67722;SHT31;58309;45.292;11.820;2022-12-07T07:47:43;4.49;99.99
67722;SHT31;58309;45.292;11.820;2022-12-07T07:50:09;4.54;99.99
67722;SHT31;58309;45.292;11.820;2022-12-07T07:52:35;4.66;99.99
67722;SHT31;58309;45.292;11.820;2022-12-07T07:55:01;4.85;99.99
67722;SHT31;58309;45.292;11.820;2022-12-07T07:57:26;5.03;99.99
67722;SHT31;58309;45.292;11.820;2022-12-07T07:59:52;5.81;99.49
67722;SHT31;58309;45.292;11.820;2022-12-07T08:02:20;6.91;95.84
67722;SHT31;58309;45.292;11.820;2022-12-07T08:04:46;7.90;93.01
67722;SHT31;58309;45.292;11.820;2022-12-07T08:07:12;8.04;87.99
67722;SHT31;58309;45.292;11.820;2022-12-07T08:09:38;8.17;86.84
67722;SHT31;58309;45.292;11.820;2022-12-07T08:12:04;9.10;85.85
67722;SHT31;58309;45.292;11.820;2022-12-07T08:14:30;9.72;83.65
67722;SHT31;58309;45.292;11.820;2022-12-07T08:16:56;10.10;80.56
67722;SHT31;58309;45.292;11.820;2022-12-07T08:19:22;10.08;79.04
67722;SHT31;58309;45.292;11.820;2022-12-07T08:21:47;10.10;78.73
67722;SHT31;58309;45.292;11.820;2022-12-07T08:24:13;10.20;77.52
67722;SHT31;58309;45.292;11.820;2022-12-07T08:26:38;9.91;77.95
67722;SHT31;58309;45.292;11.820;2022-12-07T08:29:04;10.63;77.35
67722;SHT31;58309;45.292;11.820;2022-12-07T08:31:29;11.07;73.85
67722;SHT31;58309;45.292;11.820;2022-12-07T08:33:55;11.59;72.11
67722;SHT31;58309;45.292;11.820;2022-12-07T08:36:21;11.32;73.17
67722;SHT31;58309;45.292;11.820;2022-12-07T08:38:49;11.29;72.07
67722;SHT31;58309;45.292;11.820;2022-12-07T08:41:15;11.79;69.81
67722;SHT31;58309;45.292;11.820;2022-12-07T08:43:41;11.90;71.00
67722;SHT31;58309;45.292;11.820;2022-12-07T08:46:15;11.98;70.95
67722;SHT31;58309;45.292;11.820;2022-12-07T08:48:50;11.94;70.05
67722;SHT31;58309;45.292;11.820;2022-12-07T08:51:17;12.44;67.29
67722;SHT31;58309;45.292;11.820;2022-12-07T08:53:43;11.67;70.73
67722;SHT31;58309;45.292;11.820;2022-12-07T08:56:09;10.70;73.34
67722;SHT31;58309;45.292;11.820;2022-12-07T08:58:35;11.08;71.96
67722;SHT31;58309;45.292;11.820;2022-12-07T09:01:01;11.26;71.25
67722;SHT31;58309;45.292;11.820;2022-12-07T09:03:27;11.47;70.63
67722;SHT31;58309;45.292;11.820;2022-12-07T09:05:53;11.10;71.66
67722;SHT31;58309;45.292;11.820;2022-12-07T09:08:19;11.86;69.94
67722;SHT31;58309;45.292;11.820;2022-12-07T09:10:45;11.77;69.96
67722;SHT31;58309;45.292;11.820;2022-12-07T09:13:11;11.35;71.20
67722;SHT31;58309;45.292;11.820;2022-12-07T09:15:37;11.53;70.27
67722;SHT31;58309;45.292;11.820;2022-12-07T09:18:02;12.55;68.28
67722;SHT31;58309;45.292;11.820;2022-12-07T09:20:28;13.10;64.57
67722;SHT31;58309;45.292;11.820;2022-12-07T09:22:54;12.72;65.46
67722;SHT31;58309;45.292;11.820;2022-12-07T09:25:19;13.03;65.57
67722;SHT31;58309;45.292;11.820;2022-12-07T09:27:45;13.68;64.49
67722;SHT31;58309;45.292;11.820;2022-12-07T09:30:10;13.79;63.57
67722;SHT31;58309;45.292;11.820;2022-12-07T09:32:36;13.82;63.96
67722;SHT31;58309;45.292;11.820;2022-12-07T09:35:02;13.65;63.63
67722;SHT31;58309;45.292;11.820;2022-12-07T09:37:28;14.34;63.38
67722;SHT31;58309;45.292;11.820;2022-12-07T09:39:53;13.94;63.45
67722;SHT31;58309;45.292;11.820;2022-12-07T09:42:40;14.11;63.10
67722;SHT31;58309;45.292;11.820;2022-12-07T09:45:15;14.04;63.71
67722;SHT31;58309;45.292;11.820;2022-12-07T09:47:41;13.79;64.18
67722;SHT31;58309;45.292;11.820;2022-12-07T09:50:13;13.33;64.11
67722;SHT31;58309;45.292;11.820;2022-12-07T09:52:39;13.84;64.16
67722;SHT31;58309;45.292;11.820;2022-12-07T09:55:14;14.40;60.68
67722;SHT31;58309;45.292;11.820;2022-12-07T09:57:41;14.23;58.71
67722;SHT31;58309;45.292;11.820;2022-12-07T10:00:17;14.60;57.37
67722;SHT31;58309;45.292;11.820;2022-12-07T10:02:46;15.18;59.10
67722;SHT31;58309;45.292;11.820;2022-12-07T10:05:16;14.21;59.08
67722;SHT31;58309;45.292;11.820;2022-12-07T10:07:42;15.30;56.67
67722;SHT31;58309;45.292;11.820;2022-12-07T10:10:17;14.37;61.05
67722;SHT31;58309;45.292;11.820;2022-12-07T10:13:02;14.69;57.42
67722;SHT31;58309;45.292;11.820;2022-12-07T10:15:55;15.14;57.50
67722;SHT31;58309;45.292;11.820;2022-12-07T10:18:25;15.52;55.68
67722;SHT31;58309;45.292;11.820;2022-12-07T10:20:59;16.38;54.99
67722;SHT31;58309;45.292;11.820;2022-12-07T10:23:25;15.96;51.90
67722;SHT31;58309;45.292;11.820;2022-12-07T10:25:51;15.82;54.46
67722;SHT31;58309;45.292;11.820;2022-12-07T10:28:21;15.66;53.75
67722;SHT31;58309;45.292;11.820;2022-12-07T10:30:58;15.39;55.37
67722;SHT31;58309;45.292;11.820;2022-12-07T10:33:48;14.74;57.20
67722;SHT31;58309;45.292;11.820;2022-12-07T10:38:52;15.17;53.79
67722;SHT31;58309;45.292;11.820;2022-12-07T10:41:18;15.01;55.64
67722;SHT31;58309;45.292;11.820;2022-12-07T10:43:50;15.15;54.54
67722;SHT31;58309;45.292;11.820;2022-12-07T10:55:08;15.46;52.44
67722;SHT31;58309;45.292;11.820;2022-12-07T10:57:51;15.76;51.78
67722;SHT31;58309;45.292;11.820;2022-12-07T11:00:23;15.82;51.06
67722;SHT31;58309;45.292;11.820;2022-12-07T11:09:06;16.12;49.92
67722;SHT31;58309;45.292;11.820;2022-12-07T11:12:09;16.28;47.48
67722;SHT31;58309;45.292;11.820;2022-12-07T11:14:38;16.45;48.63
67722;SHT31;58309;45.292;11.820;2022-12-07T11:20:21;16.30;48.74
67722;SHT31;58309;45.292;11.820;2022-12-07T11:33:53;16.04;49.59
67722;SHT31;58309;45.292;11.820;2022-12-07T11:36:46;16.03;48.39
67722;SHT31;58309;45.292;11.820;2022-12-07T11:42:05;15.11;50.25
67722;SHT31;58309;45.292;11.820;2022-12-07T11:55:56;16.93;48.68
67722;SHT31;58309;45.292;11.820;2022-12-07T12:06:39;17.44;46.66
67722;SHT31;58309;45.292;11.820;2022-12-07T12:09:14;18.04;45.89
67722;SHT31;58309;45.292;11.820;2022-12-07T12:19:38;17.85;46.25
67722;SHT31;58309;45.292;11.820;2022-12-07T12:22:18;18.00;44.90
67722;SHT31;58309;45.292;11.820;2022-12-07T12:24:49;17.08;47.86
67722;SHT31;58309;45.292;11.820;2022-12-07T12:27:27;15.75;48.67
67722;SHT31;58309;45.292;11.820;2022-12-07T12:29:57;14.91;53.07
67722;SHT31;58309;45.292;11.820;2022-12-07T12:35:20;13.46;58.72
67722;SHT31;58309;45.292;11.820;2022-12-07T12:37:46;12.88;61.37
67722;SHT31;58309;45.292;11.820;2022-12-07T12:45:36;11.38;63.38
67722;SHT31;58309;45.292;11.820;2022-12-07T12:48:28;11.26;63.94
67722;SHT31;58309;45.292;11.820;2022-12-07T12:54:04;10.91;67.26
67722;SHT31;58309;45.292;11.820;2022-12-07T12:56:35;10.88;67.77
67722;SHT31;58309;45.292;11.820;2022-12-07T13:15:38;10.34;68.58
67722;SHT31;58309;45.292;11.820;2022-12-07T13:29:07;10.19;82.33
67722;SHT31;58309;45.292;11.820;2022-12-07T13:31:46;10.09;82.90
67722;SHT31;58309;45.292;11.820;2022-12-07T13:34:40;9.92;82.51
67722;SHT31;58309;45.292;11.820;2022-12-07T13:37:15;9.82;81.88
67722;SHT31;58309;45.292;11.820;2022-12-07T13:39:49;9.77;82.63
67722;SHT31;58309;45.292;11.820;2022-12-07T13:42:25;9.81;82.11
67722;SHT31;58309;45.292;11.820;2022-12-07T13:44:51;9.85;82.94
67722;SHT31;58309;45.292;11.820;2022-12-07T13:49:52;9.74;82.54
67722;SHT31;58309;45.292;11.820;2022-12-07T13:54:49;9.67;83.89
67722;SHT31;58309;45.292;11.820;2022-12-07T13:57:16;9.65;84.09
67722;SHT31;58309;45.292;11.820;2022-12-07T13:59:43;9.62;83.70
67722;SHT31;58309;45.292;11.820;2022-12-07T14:02:29;9.61;83.01
67722;SHT31;58309;45.292;11.820;2022-12-07T14:05:15;9.61;83.69
67722;SHT31;58309;45.292;11.820;2022-12-07T14:10:28;9.59;83.15
67722;SHT31;58309;45.292;11.820;2022-12-07T14:12:56;9.50;82.34
67722;SHT31;58309;45.292;11.820;2022-12-07T14:15:25;9.45;82.69
67722;SHT31;58309;45.292;11.820;2022-12-07T14:17:54;9.33;83.09
67722;SHT31;58309;45.292;11.820;2022-12-07T14:20:40;9.23;84.04
67722;SHT31;58309;45.292;11.820;2022-12-07T14:23:23;9.11;83.12
67722;SHT31;58309;45.292;11.820;2022-12-07T14:25:52;9.06;84.06
67722;SHT31;58309;45.292;11.820;2022-12-07T14:28:29;8.99;85.06
67722;SHT31;58309;45.292;11.820;2022-12-07T14:30:55;8.94;85.26
67722;SHT31;58309;45.292;11.820;2022-12-07T14:33:21;8.86;86.12
67722;SHT31;58309;45.292;11.820;2022-12-07T14:35:47;8.80;85.49
67722;SHT31;58309;45.292;11.820;2022-12-07T14:38:12;8.72;85.34
67722;SHT31;58309;45.292;11.820;2022-12-07T14:40:39;8.70;85.79
67722;SHT31;58309;45.292;11.820;2022-12-07T14:43:09;8.63;85.54
67722;SHT31;58309;45.292;11.820;2022-12-07T14:45:36;8.59;86.64
67722;SHT31;58309;45.292;11.820;2022-12-07T14:48:01;8.44;86.66
67722;SHT31;58309;45.292;11.820;2022-12-07T14:50:27;8.24;87.06
67722;SHT31;58309;45.292;11.820;2022-12-07T14:52:59;8.05;87.39
67722;SHT31;58309;45.292;11.820;2022-12-07T14:55:27;7.95;87.54
67722;SHT31;58309;45.292;11.820;2022-12-07T14:57:54;7.81;87.85
67722;SHT31;58309;45.292;11.820;2022-12-07T15:00:21;7.76;88.32
67722;SHT31;58309;45.292;11.820;2022-12-07T15:02:48;7.59;88.98
67722;SHT31;58309;45.292;11.820;2022-12-07T15:05:14;7.45;89.61
67722;SHT31;58309;45.292;11.820;2022-12-07T15:07:40;7.33;90.20
67722;SHT31;58309;45.292;11.820;2022-12-07T15:10:09;7.22;90.80
67722;SHT31;58309;45.292;11.820;2022-12-07T15:12:38;7.07;91.12
67722;SHT31;58309;45.292;11.820;2022-12-07T15:15:03;6.90;91.66
67722;SHT31;58309;45.292;11.820;2022-12-07T15:17:29;6.78;92.72
67722;SHT31;58309;45.292;11.820;2022-12-07T15:19:55;6.73;94.35
67722;SHT31;58309;45.292;11.820;2022-12-07T15:22:20;6.66;95.28
67722;SHT31;58309;45.292;11.820;2022-12-07T15:24:45;6.63;95.80
67722;SHT31;58309;45.292;11.820;2022-12-07T15:27:11;6.56;95.32
67722;SHT31;58309;45.292;11.820;2022-12-07T15:29:36;6.49;95.55
67722;SHT31;58309;45.292;11.820;2022-12-07T15:32:02;6.44;96.12
67722;SHT31;58309;45.292;11.820;2022-12-07T15:34:28;6.44;95.91
67722;SHT31;58309;45.292;11.820;2022-12-07T15:36:54;6.34;95.83
67722;SHT31;58309;45.292;11.820;2022-12-07T15:39:19;6.29;96.17
67722;SHT31;58309;45.292;11.820;2022-12-07T15:41:45;6.34;97.06
67722;SHT31;58309;45.292;11.820;2022-12-07T15:44:14;6.29;96.30
67722;SHT31;58309;45.292;11.820;2022-12-07T15:46:58;6.16;96.08
67722;SHT31;58309;45.292;11.820;2022-12-07T15:49:24;6.03;95.90
67722;SHT31;58309;45.292;11.820;2022-12-07T15:51:49;5.94;95.95
67722;SHT31;58309;45.292;11.820;2022-12-07T15:54:21;5.81;96.79
67722;SHT31;58309;45.292;11.820;2022-12-07T15:56:47;5.72;97.04
67722;SHT31;58309;45.292;11.820;2022-12-07T15:59:12;5.68;97.88
67722;SHT31;58309;45.292;11.820;2022-12-07T16:01:38;5.71;98.19
67722;SHT31;58309;45.292;11.820;2022-12-07T16:04:03;5.78;98.29
67722;SHT31;58309;45.292;11.820;2022-12-07T16:06:29;5.85;98.22
67722;SHT31;58309;45.292;11.820;2022-12-07T16:08:54;5.78;97.69
67722;SHT31;58309;45.292;11.820;2022-12-07T16:11:21;5.89;97.51
67722;SHT31;58309;45.292;11.820;2022-12-07T16:13:46;5.85;97.14
67722;SHT31;58309;45.292;11.820;2022-12-07T16:16:13;5.81;97.30
67722;SHT31;58309;45.292;11.820;2022-12-07T16:18:39;5.72;97.16
67722;SHT31;58309;45.292;11.820;2022-12-07T16:21:07;5.61;97.16
67722;SHT31;58309;45.292;11.820;2022-12-07T16:23:33;5.51;97.71
67722;SHT31;58309;45.292;11.820;2022-12-07T16:26:11;5.37;97.72
67722;SHT31;58309;45.292;11.820;2022-12-07T16:28:37;5.27;98.24
67722;SHT31;58309;45.292;11.820;2022-12-07T16:31:05;5.19;98.36
67722;SHT31;58309;45.292;11.820;2022-12-07T16:33:34;5.09;98.66
67722;SHT31;58309;45.292;11.820;2022-12-07T16:36:00;5.07;98.90
67722;SHT31;58309;45.292;11.820;2022-12-07T16:38:26;5.12;99.11
67722;SHT31;58309;45.292;11.820;2022-12-07T16:40:52;5.07;98.71
67722;SHT31;58309;45.292;11.820;2022-12-07T16:43:18;5.00;99.02
67722;SHT31;58309;45.292;11.820;2022-12-07T16:45:45;4.97;99.02
67722;SHT31;58309;45.292;11.820;2022-12-07T16:48:13;4.99;98.93
67722;SHT31;58309;45.292;11.820;2022-12-07T16:50:40;4.99;98.93
67722;SHT31;58309;45.292;11.820;2022-12-07T16:53:07;4.92;98.90
67722;SHT31;58309;45.292;11.820;2022-12-07T16:55:40;4.87;99.01
67722;SHT31;58309;45.292;11.820;2022-12-07T16:58:06;4.80;98.97
67722;SHT31;58309;45.292;11.820;2022-12-07T17:00:31;4.80;99.38
67722;SHT31;58309;45.292;11.820;2022-12-07T17:02:57;4.75;99.09
67722;SHT31;58309;45.292;11.820;2022-12-07T17:05:23;4.64;98.78
67722;SHT31;58309;45.292;11.820;2022-12-07T17:07:49;4.64;99.87
67722;SHT31;58309;45.292;11.820;2022-12-07T17:10:16;4.64;99.98
67722;SHT31;58309;45.292;11.820;2022-12-07T17:12:42;4.61;99.67
67722;SHT31;58309;45.292;11.820;2022-12-07T17:15:08;4.55;99.89
67722;SHT31;58309;45.292;11.820;2022-12-07T17:17:58;4.45;99.82
67722;SHT31;58309;45.292;11.820;2022-12-07T17:20:26;4.42;99.99
67722;SHT31;58309;45.292;11.820;2022-12-07T17:22:52;4.40;99.99
67722;SHT31;58309;45.292;11.820;2022-12-07T17:25:19;4.35;99.99
67722;SHT31;58309;45.292;11.820;2022-12-07T17:27:45;4.37;99.99
67722;SHT31;58309;45.292;11.820;2022-12-07T17:30:12;4.33;99.99
67722;SHT31;58309;45.292;11.820;2022-12-07T17:32:38;4.25;99.99
67722;SHT31;58309;45.292;11.820;2022-12-07T17:35:04;4.21;99.99
67722;SHT31;58309;45.292;11.820;2022-12-07T17:37:31;4.06;99.81
67722;SHT31;58309;45.292;11.820;2022-12-07T17:39:57;3.94;99.91
67722;SHT31;58309;45.292;11.820;2022-12-07T17:42:26;3.82;99.86
67722;SHT31;58309;45.292;11.820;2022-12-07T17:45:03;3.76;99.99
67722;SHT31;58309;45.292;11.820;2022-12-07T17:47:29;3.76;99.99
67722;SHT31;58309;45.292;11.820;2022-12-07T17:49:55;3.67;99.99
67722;SHT31;58309;45.292;11.820;2022-12-07T17:52:21;3.53;99.99
67722;SHT31;58309;45.292;11.820;2022-12-07T17:55:05;3.42;99.59
67722;SHT31;58309;45.292;11.820;2022-12-07T17:57:31;3.43;99.99
67722;SHT31;58309;45.292;11.820;2022-12-07T17:59:56;3.55;99.99
67722;SHT31;58309;45.292;11.820;2022-12-07T18:02:22;3.53;99.99
67722;SHT31;58309;45.292;11.820;2022-12-07T18:04:47;3.48;99.99